»·PEaware :: N3539W KPSP-KTOA

N3539W :: KPSP-KTOA

FLIGHT INFORMATION

Flight Status: Arrived
Operator: Privately registered:
United States
More flights under this callsign
Pilot: Joerg P. (23850)
Aircraft: PIPER PA-32 SARATOGA
(PA32)
More flights by this aircraft type
Origin: KPSP Palm Springs Intl
United States
Destination: KTOA Zamperini
United States
More flights between these airports :: More routes between these airports
Route: +CATH1 PSP V388 PDZ PDZ270/16 DOWDD V394 SLI
File this flight plan on PilotEdge
Remarks: TEC route PSPP8A
Altitude:
(Current/Filed)
10,000ft
Speed:
(Current/Filed)
145kts
Departed: 22-Nov-19 06:56 PM
Arrived: 22-Nov-19 07:43 PM
Distance/Time
Traveled:
91nm/0:47
Distance/Time
To Go:
Arrived

Flight Plot

Page will automatically refresh every two minutes.

Flight plan parsing failed; only flown route is shown


Map Options




Map Legend


Flown Route
Filed Route
Departure Airport
Arrival Airport
Navaid (VOR, NDB)
Fix

Horizontal Profiles

Position Reports

Time Latitude Longitude Heading Altitude Ground
Speed
22-Nov-19 18:43 33.823792 -116.507545 205 429ft 0kts
22-Nov-19 18:44 33.823792 -116.507545 205 429ft 0kts
22-Nov-19 18:45 33.823792 -116.507545 205 429ft 0kts
22-Nov-19 18:46 33.823792 -116.507545 205 429ft 0kts
22-Nov-19 18:47 33.823792 -116.507545 205 429ft 0kts
22-Nov-19 18:48 33.823792 -116.507545 205 429ft 0kts
22-Nov-19 18:49 33.823792 -116.507545 205 429ft 0kts
22-Nov-19 18:50 33.823792 -116.507545 205 429ft 0kts
22-Nov-19 18:51 33.823792 -116.507545 205 429ft 0kts
22-Nov-19 18:52 33.824211 -116.506306 120 429ft 12kts
22-Nov-19 18:53 33.822850 -116.503555 24 429ft 9kts
22-Nov-19 18:54 33.823276 -116.503200 77 429ft 0kts
22-Nov-19 18:55 33.824458 -116.503018 323 429ft 34kts
22-Nov-19 18:56 33.844904 -116.520659 328 1315ft 103kts
22-Nov-19 18:56 33.866073 -116.526429 46 2340ft 102kts
22-Nov-19 18:58 33.860341 -116.489768 105 3726ft 100kts
22-Nov-19 18:59 33.861716 -116.457193 79 4771ft 102kts
22-Nov-19 18:59 33.867875 -116.430192 56 5591ft 103kts
22-Nov-19 19:01 33.888372 -116.440144 284 6664ft 109kts
22-Nov-19 19:02 33.893078 -116.475807 279 7591ft 109kts
22-Nov-19 19:02 33.897789 -116.505290 282 8398ft 108kts
22-Nov-19 19:04 33.907444 -116.545831 305 9422ft 110kts
22-Nov-19 19:05 33.921150 -116.578264 278 10088ft 122kts
22-Nov-19 19:05 33.921330 -116.617804 269 10028ft 152kts
22-Nov-19 19:06 33.931324 -116.667861 285 10028ft 158kts
22-Nov-19 19:08 33.945339 -116.726402 285 10028ft 155kts
22-Nov-19 19:08 33.947263 -116.769409 267 10029ft 157kts
22-Nov-19 19:09 33.945667 -116.821744 267 10063ft 156kts
22-Nov-19 19:10 33.943806 -116.873818 267 10064ft 157kts
22-Nov-19 19:11 33.941983 -116.924123 267 10064ft 158kts
22-Nov-19 19:12 33.940145 -116.974304 267 10064ft 158kts
22-Nov-19 19:13 33.937299 -117.027100 278 9673ft 176kts
22-Nov-19 19:14 33.944320 -117.086932 274 9000ft 180kts
22-Nov-19 19:15 33.946659 -117.147383 268 8380ft 181kts
22-Nov-19 19:16 33.943165 -117.206909 264 7946ft 177kts
22-Nov-19 19:17 33.937108 -117.265985 260 7499ft 177kts
22-Nov-19 19:18 33.927069 -117.324810 258 7024ft 177kts
22-Nov-19 19:19 33.920038 -117.383437 267 6547ft 176kts
22-Nov-19 19:20 33.918955 -117.441842 272 6134ft 173kts
22-Nov-19 19:21 33.920296 -117.499196 271 6072ft 167kts
22-Nov-19 19:22 33.925319 -117.554705 284 6066ft 168kts
22-Nov-19 19:23 33.934427 -117.609599 278 6111ft 165kts
22-Nov-19 19:24 33.946108 -117.663707 291 6093ft 166kts
22-Nov-19 19:25 33.960994 -117.716562 288 6093ft 166kts
22-Nov-19 19:26 33.974553 -117.770258 287 6096ft 166kts
22-Nov-19 19:27 33.987237 -117.824184 279 6085ft 167kts
22-Nov-19 19:28 33.954952 -117.855824 183 5627ft 178kts
22-Nov-19 19:29 33.908227 -117.866239 195 5527ft 172kts
22-Nov-19 19:30 33.863232 -117.883824 199 5336ft 171kts
22-Nov-19 19:31 33.819414 -117.906153 203 4858ft 171kts
22-Nov-19 19:32 33.781067 -117.937715 246 4429ft 168kts
22-Nov-19 19:33 33.775797 -117.992756 257 3926ft 167kts
22-Nov-19 19:34 33.769689 -118.047849 262 3522ft 164kts
22-Nov-19 19:35 33.763447 -118.101898 262 3124ft 163kts
22-Nov-19 19:36 33.759441 -118.155715 267 2476ft 158kts
22-Nov-19 19:37 33.756820 -118.208568 265 1979ft 152kts
22-Nov-19 19:38 33.758845 -118.259231 280 1735ft 143kts
22-Nov-19 19:39 33.772225 -118.294353 306 1335ft 100kts
22-Nov-19 19:40 33.787896 -118.317889 305 695ft 89kts
22-Nov-19 19:41 33.801514 -118.338484 308 101ft 48kts
22-Nov-19 19:42 33.803047 -118.341889 277 101ft 7kts
22-Nov-19 19:43 33.800352 -118.339298 128 101ft 20kts

Navigation Log

Ident Type
Flight plan parsing failed, navigation log unavailable